Hhl Rio De Janeiro — D5AU2 — position and weather

sailwx.info

Track history (hours):
 
Tides and Currents Weather Stations Pressure Air Temp Water Temp Dewpoint Dewpoint Depression Visibility Wind Speed Wind Dir Waves Ship Positions

Hhl Rio De Janeiro

Last reported at 2014-Jul-16 08:29 UTC. Time now 2014-Jul-25 06:53 UTC.
Position N 01°14' E 103°60'.
Warning: this ship's position is 8 days out of date.

Length 168 m; draft 7.2 m.

Type: Cargo ship. MMSI: 636092346.

Date/timePositionNaut miles runAvg speedWind from/ knotsBaromVisibWave heightAir tempDewpointWater temp
2014-Jul-16 08:29N 01°14' E 103°60'7 8.0
2014-Jul-16 07:33N 01°16' E 103°53'1 0.6
2014-Jul-16 06:26N 01°15' E 103°52'0 0.0
2014-Jul-16 05:32N 01°15' E 103°52'0 0.1
2014-Jul-16 04:23N 01°15' E 103°52'0 0.1
2014-Jul-16 03:29N 01°15' E 103°52'0 0.0
2014-Jul-16 01:26N 01°15' E 103°52'2 2.2
2014-Jul-16 00:33N 01°14' E 103°53'6 6.0
2014-Jul-15 23:33N 01°15' E 103°59'  
Track history (hours):
 
Tides and Currents Weather Stations Pressure Air Temp Water Temp Dewpoint Dewpoint Depression Visibility Wind Speed Wind Dir Waves Ship Positions

Hhl Rio De Janeiro

Last reported at 2014-Jul-16 08:29 UTC. Time now 2014-Jul-25 06:53 UTC.
Position N 01°14' E 103°60'.
Warning: this ship's position is 8 days out of date.

Length 168 m; draft 7.2 m.

Type: Cargo ship. MMSI: 636092346.

Date/timePositionNaut miles runAvg speedWind from/ knotsBaromVisibWave heightAir tempDewpointWater temp
2014-Jul-16 08:29N 01°14' E 103°60'7 8.0
2014-Jul-16 07:33N 01°16' E 103°53'1 0.6
2014-Jul-16 06:26N 01°15' E 103°52'0 0.0
2014-Jul-16 05:32N 01°15' E 103°52'0 0.1
2014-Jul-16 04:23N 01°15' E 103°52'0 0.1
2014-Jul-16 03:29N 01°15' E 103°52'0 0.0
2014-Jul-16 01:26N 01°15' E 103°52'2 2.2
2014-Jul-16 00:33N 01°14' E 103°53'6 6.0
2014-Jul-15 23:33N 01°15' E 103°59'  

Dump ship's entire track history